Time,TemperatureF,DewpointF,PressureIn,WindDirection,WindDirectionDegrees,WindSpeedMPH,WindSpeedGustMPH,Humidity,HourlyPrecipIn,Conditions,Clouds,dailyrainin,SoftwareType,DateUTC
2013-08-07 00:21:00,73.0,70.0,-100.00,SSW,205,4.0,6.0,91,-99.99,,,-99.99,,2013-08-07 04:21:00,
2013-08-07 00:33:00,73.0,70.0,-100.00,SSW,205,4.0,6.0,91,-99.99,,,-99.99,,2013-08-07 04:33:00,
2013-08-07 00:43:00,73.0,70.0,-100.00,SSW,195,4.0,6.0,92,-99.99,,,-99.99,,2013-08-07 04:43:00,
2013-08-07 00:52:00,72.0,70.0,-100.00,SSW,210,3.0,4.0,92,-99.99,,,-99.99,,2013-08-07 04:52:00,
2013-08-07 01:02:00,72.0,70.0,-100.00,SSW,200,4.0,6.0,92,-99.99,,,-99.99,,2013-08-07 05:02:00,
2013-08-07 01:32:00,71.0,70.0,-100.00,SSW,200,4.0,7.0,94,-99.99,,,-99.99,,2013-08-07 05:32:00,
2013-08-07 01:43:00,71.0,70.0,-100.00,SSW,200,4.0,7.0,94,-99.99,,,-99.99,,2013-08-07 05:43:00,
2013-08-07 01:52:00,71.0,70.0,-100.00,SSW,195,4.0,7.0,94,-99.99,,,-99.99,,2013-08-07 05:52:00,
2013-08-07 02:02:00,71.0,69.0,-100.00,SSW,195,6.0,7.0,94,-99.99,,,-99.99,,2013-08-07 06:02:00,
2013-08-07 02:11:00,71.0,69.0,-100.00,SSW,195,6.0,7.0,94,-99.99,,,-99.99,,2013-08-07 06:11:00,
2013-08-07 02:22:00,71.0,69.0,-100.00,SSW,195,6.0,7.0,94,-99.99,,,-99.99,,2013-08-07 06:22:00,
2013-08-07 02:32:00,71.0,69.0,-100.00,SSW,195,6.0,7.0,94,-99.99,,,-99.99,,2013-08-07 06:32:00,
2013-08-07 02:43:00,71.0,69.0,-100.00,SW,215,4.0,6.0,95,-99.99,,,-99.99,,2013-08-07 06:43:00,
2013-08-07 02:52:00,71.0,69.0,-100.00,SW,220,4.0,6.0,95,-99.99,,,-99.99,,2013-08-07 06:52:00,
2013-08-07 03:01:00,70.0,69.0,-100.00,SSW,210,4.0,6.0,95,-99.99,,,-99.99,,2013-08-07 07:01:00,
2013-08-07 03:12:00,70.0,69.0,-100.00,SW,215,4.0,6.0,96,-99.99,,,-99.99,,2013-08-07 07:12:00,
2013-08-07 03:22:00,70.0,69.0,-100.00,SSW,195,5.0,7.0,96,-99.99,,,-99.99,,2013-08-07 07:22:00,
2013-08-07 03:33:00,70.0,69.0,-100.00,SSW,210,4.0,7.0,96,-99.99,,,-99.99,,2013-08-07 07:33:00,
2013-08-07 03:43:00,70.0,69.0,-100.00,SSW,195,5.0,7.0,96,-99.99,,,-99.99,,2013-08-07 07:43:00,
2013-08-07 03:52:00,70.0,69.0,-100.00,SSW,205,5.0,7.0,96,-99.99,,,-99.99,,2013-08-07 07:52:00,
2013-08-07 04:02:00,70.0,69.0,-100.00,SW,215,5.0,7.0,96,-99.99,,,-99.99,,2013-08-07 08:02:00,
2013-08-07 04:22:00,70.0,69.0,-100.00,SSW,205,5.0,8.0,96,-99.99,,,-99.99,,2013-08-07 08:22:00,
2013-08-07 04:32:00,70.0,69.0,-100.00,SSW,200,3.0,5.0,96,-99.99,,,-99.99,,2013-08-07 08:32:00,
2013-08-07 04:44:00,70.0,69.0,-100.00,SSW,205,3.0,6.0,96,-99.99,,,-99.99,,2013-08-07 08:44:00,
2013-08-07 04:52:00,70.0,69.0,-100.00,SSW,205,3.0,6.0,96,-99.99,,,-99.99,,2013-08-07 08:52:00,
2013-08-07 05:02:00,70.0,69.0,-100.00,SSW,210,4.0,6.0,97,-99.99,,,-99.99,,2013-08-07 09:02:00,
2013-08-07 05:12:00,70.0,69.0,-100.00,SSW,210,4.0,6.0,97,-99.99,,,-99.99,,2013-08-07 09:12:00,
2013-08-07 05:32:00,69.0,69.0,-100.00,SSW,200,4.0,6.0,97,-99.99,,,-99.99,,2013-08-07 09:32:00,
2013-08-07 05:43:00,70.0,69.0,-100.00,SSW,200,4.0,6.0,97,-99.99,,,-99.99,,2013-08-07 09:43:00,
2013-08-07 06:22:00,70.0,69.0,-100.00,SSW,195,6.0,7.0,97,-99.99,,,-99.99,,2013-08-07 10:22:00,
2013-08-07 06:32:00,70.0,69.0,-100.00,SSW,210,4.0,6.0,97,-99.99,,,-99.99,,2013-08-07 10:32:00,
2013-08-07 06:43:00,69.0,69.0,-100.00,SSW,205,5.0,8.0,97,-99.99,,,-99.99,,2013-08-07 10:43:00,
2013-08-07 07:01:00,69.0,69.0,-100.00,SSW,195,4.0,7.0,97,-99.99,,,-99.99,,2013-08-07 11:01:00,
2013-08-07 07:32:00,69.0,69.0,-100.00,SW,215,2.0,4.0,98,-99.99,,,-99.99,,2013-08-07 11:32:00,
2013-08-07 08:02:00,70.0,69.0,-100.00,SSW,210,4.0,6.0,98,-99.99,,,-99.99,,2013-08-07 12:02:00,
2013-08-07 08:33:00,71.0,70.0,-100.00,SSW,210,3.0,6.0,98,-99.99,,,-99.99,,2013-08-07 12:33:00,
2013-08-07 08:43:00,71.0,71.0,-100.00,SSW,200,3.0,6.0,98,-99.99,,,-99.99,,2013-08-07 12:43:00,
2013-08-07 08:52:00,72.0,71.0,-100.00,SSW,205,3.0,7.0,97,-99.99,,,-99.99,,2013-08-07 12:52:00,
2013-08-07 09:02:00,73.0,72.0,-100.00,WSW,245,2.0,5.0,97,-99.99,,,-99.99,,2013-08-07 13:02:00,
2013-08-07 09:12:00,73.0,72.0,-100.00,WSW,245,2.0,5.0,97,-99.99,,,-99.99,,2013-08-07 13:12:00,
2013-08-07 09:22:00,73.0,72.0,-100.00,WSW,245,2.0,5.0,97,-99.99,,,-99.99,,2013-08-07 13:22:00,
2013-08-07 09:32:00,73.0,72.0,-100.00,SW,235,4.0,7.0,97,-99.99,,,-99.99,,2013-08-07 13:32:00,
2013-08-07 09:53:00,74.0,73.0,-100.00,SW,215,4.0,7.0,97,-99.99,,,-99.99,,2013-08-07 13:53:00,
2013-08-07 10:02:00,74.0,73.0,-100.00,WNW,295,4.0,7.0,97,-99.99,,,-99.99,,2013-08-07 14:02:00,
2013-08-07 10:33:00,75.0,74.0,-100.00,SW,235,2.0,8.0,96,-99.99,,,-99.99,,2013-08-07 14:33:00,
2013-08-07 10:43:00,76.0,75.0,-100.00,WSW,240,3.0,8.0,96,-99.99,,,-99.99,,2013-08-07 14:43:00,
2013-08-07 10:52:00,76.0,75.0,-100.00,NNW,330,4.0,6.0,96,-99.99,,,-99.99,,2013-08-07 14:52:00,
2013-08-07 11:02:00,76.0,75.0,-100.00,NNW,330,4.0,6.0,96,-99.99,,,-99.99,,2013-08-07 15:02:00,
2013-08-07 11:12:00,76.0,75.0,-100.00,North,0,7.0,10.0,95,-99.99,,,-99.99,,2013-08-07 15:12:00,
2013-08-07 11:22:00,74.0,73.0,-100.00,NNE,25,7.0,15.0,95,-99.99,,,-99.99,,2013-08-07 15:22:00,
2013-08-07 11:33:00,74.0,73.0,-100.00,North,10,5.0,9.0,96,-99.99,,,-99.99,,2013-08-07 15:33:00,
2013-08-07 12:11:00,73.0,72.0,-100.00,NNE,15,4.0,8.0,96,-99.99,,,-99.99,,2013-08-07 16:11:00,
2013-08-07 12:33:00,71.0,71.0,-100.00,North,10,9.0,19.0,98,-99.99,,,-99.99,,2013-08-07 16:33:00,
2013-08-07 13:01:00,70.0,70.0,-100.00,SSW,195,1.0,7.0,98,-99.99,,,-99.99,,2013-08-07 17:01:00,
2013-08-07 13:22:00,71.0,70.0,-100.00,South,175,6.0,7.0,98,-99.99,,,-99.99,,2013-08-07 17:22:00,
2013-08-07 13:43:00,71.0,71.0,-100.00,South,175,9.0,12.0,98,-99.99,,,-99.99,,2013-08-07 17:43:00,
2013-08-07 13:52:00,73.0,72.0,-100.00,SSE,165,7.0,11.0,98,-99.99,,,-99.99,,2013-08-07 17:52:00,
2013-08-07 14:02:00,73.0,72.0,-100.00,South,190,8.0,12.0,97,-99.99,,,-99.99,,2013-08-07 18:02:00,
2013-08-07 14:22:00,74.0,73.0,-100.00,South,180,7.0,12.0,95,-99.99,,,-99.99,,2013-08-07 18:22:00,
2013-08-07 15:11:00,80.0,73.0,-100.00,SSW,210,7.0,10.0,80,-99.99,,,-99.99,,2013-08-07 19:11:00,
2013-08-07 16:02:00,83.0,74.0,-100.00,South,190,6.0,14.0,74,-99.99,,,-99.99,,2013-08-07 20:02:00,
2013-08-07 16:11:00,83.0,74.0,-100.00,SSW,200,6.0,12.0,75,-99.99,,,-99.99,,2013-08-07 20:11:00,
2013-08-07 16:32:00,82.0,74.0,-100.00,SSW,205,7.0,12.0,76,-99.99,,,-99.99,,2013-08-07 20:32:00,
2013-08-07 16:43:00,83.0,75.0,-100.00,SW,235,6.0,11.0,77,-99.99,,,-99.99,,2013-08-07 20:43:00,
2013-08-07 17:22:00,83.0,76.0,-100.00,SW,220,5.0,9.0,78,-99.99,,,-99.99,,2013-08-07 21:22:00,
2013-08-07 17:32:00,83.0,76.0,-100.00,SW,220,5.0,9.0,78,-99.99,,,-99.99,,2013-08-07 21:32:00,
2013-08-07 17:43:00,83.0,76.0,-100.00,South,185,6.0,10.0,81,-99.99,,,-99.99,,2013-08-07 21:43:00,
2013-08-07 17:52:00,83.0,76.0,-100.00,SW,225,7.0,9.0,80,-99.99,,,-99.99,,2013-08-07 21:52:00,
2013-08-07 18:01:00,83.0,76.0,-100.00,SW,220,6.0,9.0,81,-99.99,,,-99.99,,2013-08-07 22:01:00,
2013-08-07 18:12:00,82.0,76.0,-100.00,SW,215,6.0,10.0,82,-99.99,,,-99.99,,2013-08-07 22:12:00,
2013-08-07 18:22:00,82.0,77.0,-100.00,WSW,240,6.0,12.0,83,-99.99,,,-99.99,,2013-08-07 22:22:00,
2013-08-07 19:11:00,82.0,77.0,-100.00,WSW,250,6.0,9.0,83,-99.99,,,-99.99,,2013-08-07 23:11:00,
2013-08-07 19:22:00,82.0,77.0,-100.00,WSW,250,6.0,9.0,83,-99.99,,,-99.99,,2013-08-07 23:22:00,
2013-08-07 19:43:00,82.0,78.0,-100.00,WSW,240,2.0,7.0,87,-99.99,,,-99.99,,2013-08-07 23:43:00,
2013-08-07 19:52:00,82.0,77.0,-100.00,WSW,255,2.0,7.0,87,-99.99,,,-99.99,,2013-08-07 23:52:00,
2013-08-07 20:01:00,82.0,78.0,-100.00,SSW,210,2.0,7.0,88,-99.99,,,-99.99,,2013-08-08 00:01:00,
2013-08-07 20:11:00,82.0,78.0,-100.00,SSW,210,5.0,7.0,88,-99.99,,,-99.99,,2013-08-08 00:11:00,
2013-08-07 20:22:00,82.0,78.0,-100.00,SSW,210,4.0,9.0,88,-99.99,,,-99.99,,2013-08-08 00:22:00,
2013-08-07 20:32:00,81.0,78.0,-100.00,South,190,7.0,9.0,89,-99.99,,,-99.99,,2013-08-08 00:32:00,
2013-08-07 20:42:00,81.0,78.0,-100.00,South,190,7.0,9.0,89,-99.99,,,-99.99,,2013-08-08 00:42:00,
2013-08-07 20:52:00,81.0,78.0,-100.00,SSW,210,5.0,7.0,91,-99.99,,,-99.99,,2013-08-08 00:52:00,
2013-08-07 21:02:00,80.0,78.0,-100.00,SW,220,2.0,6.0,92,-99.99,,,-99.99,,2013-08-08 01:02:00,
2013-08-07 21:11:00,80.0,78.0,-100.00,SW,220,2.0,4.0,92,-99.99,,,-99.99,,2013-08-08 01:11:00,
2013-08-07 21:22:00,80.0,77.0,-100.00,SW,215,2.0,4.0,93,-99.99,,,-99.99,,2013-08-08 01:22:00,
2013-08-07 21:32:00,79.0,77.0,-100.00,SSW,200,4.0,6.0,94,-99.99,,,-99.99,,2013-08-08 01:32:00,
2013-08-07 21:43:00,79.0,77.0,-100.00,SSW,200,4.0,6.0,94,-99.99,,,-99.99,,2013-08-08 01:43:00,
2013-08-07 21:52:00,79.0,77.0,-100.00,SSW,200,4.0,6.0,94,-99.99,,,-99.99,,2013-08-08 01:52:00,
2013-08-07 22:00:00,78.0,77.0,-100.00,SSW,200,4.0,6.0,95,-99.99,,,-99.99,,2013-08-08 02:00:00,
2013-08-07 22:02:00,78.0,77.0,-100.00,SSW,200,4.0,5.0,94,-99.99,,,-99.99,,2013-08-08 02:02:00,
2013-08-07 22:22:00,78.0,77.0,-100.00,SSW,200,3.0,6.0,95,-99.99,,,-99.99,,2013-08-08 02:22:00,
2013-08-07 22:32:00,78.0,77.0,-100.00,SSW,200,4.0,6.0,95,-99.99,,,-99.99,,2013-08-08 02:32:00,
2013-08-07 22:42:00,78.0,77.0,-100.00,SSW,200,4.0,6.0,95,-99.99,,,-99.99,,2013-08-08 02:42:00,
2013-08-07 22:52:00,78.0,77.0,-100.00,SSW,200,4.0,6.0,95,-99.99,,,-99.99,,2013-08-08 02:52:00,
2013-08-07 23:22:00,77.0,76.0,-100.00,SW,215,2.0,3.0,96,-99.99,,,-99.99,,2013-08-08 03:22:00,